Time;durP1;ratioP1;P1;durP2;ratioP2;P2;SDS_P1;SDS_P2;PMS_P1;PMS_P2;Temp;Humidity;BMP_temperature;BMP_pressure;BME280_temperature;BME280_humidity;BME280_pressure;Samples;Min_cycle;Max_cycle;Signal;HPM_P1;HPM_P2
2021/06/07 00:01:08;;;;;;;21.42;13.85;;;;;;;15.79;88.99;99426.69;5054825;28;20053;-81
2021/06/07 00:03:35;;;;;;;26.52;14.77;;;;;;;15.79;88.95;99430.28;5054681;28;20472;-80
2021/06/07 00:06:02;;;;;;;24.55;14.75;;;;;;;15.68;89.09;99419.94;5046235;28;20459;-81
2021/06/07 00:08:30;;;;;;;22.30;13.85;;;;;;;15.69;88.84;99417.00;5052081;28;20504;-81
2021/06/07 00:10:56;;;;;;;20.52;13.25;;;;;;;15.62;89.15;99409.81;5055378;28;20045;-81
2021/06/07 00:13:25;;;;;;;23.52;14.50;;;;;;;15.80;88.68;99429.22;5054444;28;20053;-80
2021/06/07 00:15:52;;;;;;;19.92;13.98;;;;;;;15.51;89.19;99401.19;5037524;28;20080;-81
2021/06/07 00:18:19;;;;;;;21.73;14.23;;;;;;;15.56;89.98;99426.03;5054287;28;20055;-81
2021/06/07 00:20:48;;;;;;;23.98;15.85;;;;;;;15.69;89.42;99424.38;5055070;28;20045;-80
2021/06/07 00:23:16;;;;;;;25.13;14.13;;;;;;;15.68;89.73;99431.72;5054877;28;20053;-80
2021/06/07 00:25:46;;;;;;;28.70;15.25;;;;;;;15.70;89.44;99432.38;5053939;28;20045;-81
2021/06/07 00:28:12;;;;;;;27.90;15.43;;;;;;;15.69;89.44;99413.41;5054360;28;20063;-81
2021/06/07 00:30:39;;;;;;;28.67;14.73;;;;;;;15.73;90.63;99422.88;5053892;28;20119;-81
2021/06/07 00:33:05;;;;;;;22.88;14.70;;;;;;;15.70;90.15;99424.16;5038319;28;20402;-81
2021/06/07 00:35:32;;;;;;;24.73;14.30;;;;;;;15.72;89.18;99421.22;5054534;28;20141;-81
2021/06/07 00:37:58;;;;;;;20.88;13.68;;;;;;;15.74;89.09;99436.38;5049654;28;20060;-81
2021/06/07 00:40:26;;;;;;;23.35;14.98;;;;;;;15.65;89.08;99426.69;5054575;28;20053;-81
2021/06/07 00:42:54;;;;;;;21.45;13.38;;;;;;;15.78;89.24;99433.22;5054363;28;20064;-81
2021/06/07 00:45:24;;;;;;;27.73;14.00;;;;;;;15.73;89.23;99421.00;5053509;28;20057;-81
2021/06/07 00:47:52;;;;;;;24.25;13.93;;;;;;;15.81;89.69;99433.66;5054511;28;20056;-81
2021/06/07 00:50:25;;;;;;;24.20;14.27;;;;;;;15.67;90.31;99426.47;5045520;28;20045;-81
2021/06/07 00:53:02;;;;;;;21.33;13.93;;;;;;;15.69;90.19;99418.91;5036023;28;20057;-81
2021/06/07 00:55:38;;;;;;;20.75;14.20;;;;;;;15.84;88.97;99425.03;5053678;28;20059;-81
2021/06/07 00:58:08;;;;;;;24.17;14.27;;;;;;;15.78;88.80;99414.03;5054002;28;20400;-81
2021/06/07 01:00:37;;;;;;;26.67;14.10;;;;;;;15.69;89.38;99425.22;5053783;28;20409;-81
2021/06/07 01:03:05;;;;;;;24.55;14.98;;;;;;;15.69;89.84;99424.38;5053854;28;20045;-81
2021/06/07 01:05:32;;;;;;;26.98;15.93;;;;;;;15.89;88.93;99427.94;5053674;28;20041;-81
2021/06/07 01:07:59;;;;;;;25.98;15.10;;;;;;;15.74;89.49;99432.78;5053615;28;20057;-81
2021/06/07 01:10:26;;;;;;;23.88;16.02;;;;;;;15.71;89.69;99431.31;5048656;28;20041;-81
2021/06/07 01:12:52;;;;;;;23.50;13.80;;;;;;;15.67;89.90;99423.72;5050944;28;20102;-81
2021/06/07 01:15:21;;;;;;;21.00;13.77;;;;;;;15.64;90.06;99410.44;5053448;28;20049;-81
2021/06/07 01:17:49;;;;;;;28.25;14.85;;;;;;;15.60;89.57;99407.31;5053266;28;20106;-81
2021/06/07 01:20:20;;;;;;;23.67;14.27;;;;;;;15.58;89.38;99393.81;5053675;28;20045;-81
2021/06/07 01:22:54;;;;;;;25.27;15.65;;;;;;;15.67;88.91;99405.41;5053711;28;20079;-81
2021/06/07 01:27:59;;;;;;;38.65;15.13;;;;;;;15.53;90.00;99415.50;5033978;28;20116;-81
2021/06/07 01:30:28;;;;;;;24.45;15.20;;;;;;;15.55;89.40;99396.97;5053680;28;20048;-81
2021/06/07 01:33:03;;;;;;;25.02;15.23;;;;;;;15.59;89.43;99402.88;5053239;28;20512;-81
2021/06/07 01:35:33;;;;;;;21.27;13.63;;;;;;;15.52;88.97;99391.06;5032946;28;20048;-81
2021/06/07 01:38:02;;;;;;;22.92;14.93;;;;;;;15.63;88.99;99392.34;5041311;28;20075;-81
2021/06/07 01:40:51;;;;;;;24.33;13.55;;;;;;;15.48;89.60;99398.88;5044209;28;20052;-81
2021/06/07 01:43:17;;;;;;;24.67;13.70;;;;;;;15.52;89.64;99400.16;5050957;28;20077;-81
2021/06/07 01:45:49;;;;;;;25.38;13.93;;;;;;;15.42;89.37;99382.44;5053081;28;20822;-81
2021/06/07 01:48:17;;;;;;;22.95;13.65;;;;;;;15.50;88.86;99377.56;5033680;28;20053;-81
2021/06/07 01:51:15;;;;;;;29.90;14.07;;;;;;;15.54;89.27;99388.97;5053167;28;20041;-82
2021/06/07 01:53:46;;;;;;;22.25;13.85;;;;;;;15.48;89.77;99387.09;5052638;28;20059;-81
2021/06/07 01:56:15;;;;;;;22.95;13.45;;;;;;;15.44;89.31;99372.13;5052763;28;20485;-82
2021/06/07 01:58:45;;;;;;;23.40;13.65;;;;;;;15.38;89.81;99376.53;5052794;28;20047;-81
2021/06/07 02:01:14;;;;;;;26.00;13.80;;;;;;;15.37;89.63;99369.34;5052716;28;20048;-81
2021/06/07 02:03:41;;;;;;;21.35;13.70;;;;;;;15.42;90.20;99393.41;5033254;28;20046;-83
2021/06/07 02:06:10;;;;;;;21.77;13.60;;;;;;;15.46;90.08;99395.50;5033335;28;20108;-82
2021/06/07 02:08:39;;;;;;;20.60;13.57;;;;;;;15.38;90.08;99382.84;5035822;28;20103;-81
2021/06/07 02:11:11;;;;;;;22.23;13.98;;;;;;;15.37;90.36;99380.31;5053151;28;20049;-81
2021/06/07 02:13:49;;;;;;;23.50;14.57;;;;;;;15.26;90.17;99370.00;5044144;28;20064;-81
2021/06/07 02:16:20;;;;;;;26.17;13.93;;;;;;;15.22;90.56;99367.69;5050320;28;20520;-82
2021/06/07 02:18:47;;;;;;;22.77;13.93;;;;;;;15.32;90.55;99380.13;5050908;28;20049;-81
2021/06/07 02:21:15;;;;;;;20.98;13.40;;;;;;;15.27;90.83;99366.22;5047459;28;20064;-82
2021/06/07 02:23:44;;;;;;;21.67;13.10;;;;;;;15.35;90.22;99379.69;5050113;28;20558;-81
2021/06/07 02:26:17;;;;;;;22.50;13.00;;;;;;;15.42;90.72;99391.50;5047455;28;20620;-82
2021/06/07 02:29:02;;;;;;;20.23;13.40;;;;;;;15.50;90.59;99391.28;5055955;28;20064;-82
2021/06/07 02:31:29;;;;;;;21.83;14.13;;;;;;;15.62;90.02;99393.38;5054028;28;20091;-82
2021/06/07 02:34:30;;;;;;;22.83;13.32;;;;;;;15.65;89.83;99401.19;5054550;28;20103;-81
2021/06/07 02:37:20;;;;;;;19.05;12.95;;;;;;;15.38;90.31;99377.38;5046577;28;20104;-81
2021/06/07 02:39:46;;;;;;;24.40;13.80;;;;;;;15.42;90.71;99380.53;5050586;28;20135;-81
2021/06/07 02:42:14;;;;;;;26.95;12.77;;;;;;;15.41;90.79;99398.03;5054230;28;20504;-82
2021/06/07 02:44:47;;;;;;;24.50;12.45;;;;;;;15.35;90.98;99391.47;5054050;28;20056;-82
2021/06/07 02:47:24;;;;;;;19.55;11.65;;;;;;;15.33;91.53;99390.88;5055872;28;20057;-82
2021/06/07 02:49:54;;;;;;;23.50;12.50;;;;;;;15.38;91.29;99396.53;5056445;28;20485;-81
2021/06/07 02:52:20;;;;;;;18.80;12.00;;;;;;;15.37;91.06;99389.41;5056408;28;20045;-81
2021/06/07 02:55:07;;;;;;;20.65;12.38;;;;;;;15.33;91.54;99400.97;5055538;28;20559;-81
2021/06/07 02:57:58;;;;;;;19.13;11.18;;;;;;;15.31;91.47;99390.25;5036407;28;20060;-82
2021/06/07 03:00:33;;;;;;;15.73;11.35;;;;;;;15.19;91.74;99387.28;5049045;28;20611;-82
2021/06/07 03:03:06;;;;;;;18.30;12.10;;;;;;;15.28;92.04;99403.50;5055966;28;20099;-82
2021/06/07 03:05:33;;;;;;;19.08;11.88;;;;;;;15.34;91.87;99398.03;5054229;28;20053;-81
2021/06/07 03:08:01;;;;;;;18.15;11.40;;;;;;;15.33;91.44;99399.06;5056477;28;20413;-82
2021/06/07 03:10:35;;;;;;;18.88;11.57;;;;;;;15.31;92.06;99403.06;5055529;28;20037;-82
2021/06/07 03:13:12;;;;;;;21.05;12.25;;;;;;;15.35;91.28;99394.22;5055360;28;20451;-81
2021/06/07 03:15:39;;;;;;;21.38;13.15;;;;;;;15.31;91.24;99382.03;5055480;28;20068;-82
2021/06/07 03:18:06;;;;;;;22.45;12.13;;;;;;;15.26;91.25;99390.00;5055807;28;20094;-82
2021/06/07 03:20:34;;;;;;;23.83;12.90;;;;;;;15.45;91.19;99396.56;5055894;28;20053;-82
2021/06/07 03:23:04;;;;;;;20.30;12.50;;;;;;;15.38;91.18;99388.31;5039206;28;20056;-81
2021/06/07 03:25:31;;;;;;;19.83;12.05;;;;;;;15.45;90.87;99402.03;5055501;28;20103;-82
2021/06/07 03:27:59;;;;;;;21.48;12.90;;;;;;;15.40;91.27;99390.84;5056016;28;20141;-82
2021/06/07 03:30:27;;;;;;;23.05;13.50;;;;;;;15.36;91.10;99379.47;5055966;28;20049;-82
2021/06/07 03:32:54;;;;;;;23.20;12.98;;;;;;;15.33;91.21;99388.13;5055581;28;20049;-82
2021/06/07 03:35:21;;;;;;;23.85;14.40;;;;;;;15.23;91.43;99382.22;5054875;28;20045;-81
2021/06/07 03:37:49;;;;;;;24.27;13.25;;;;;;;15.29;91.90;99394.22;5055069;28;20057;-81
2021/06/07 03:40:18;;;;;;;25.75;14.05;;;;;;;15.24;91.68;99386.66;5055516;28;20724;-81
2021/06/07 03:42:45;;;;;;;25.77;14.20;;;;;;;15.28;91.96;99406.22;5055819;28;20048;-81
2021/06/07 03:45:13;;;;;;;26.83;13.98;;;;;;;15.30;91.56;99395.94;5040823;28;20052;-81
2021/06/07 03:47:42;;;;;;;21.38;13.75;;;;;;;15.31;91.60;99387.50;5055552;28;20056;-82
2021/06/07 03:50:10;;;;;;;24.67;15.05;;;;;;;15.31;91.89;99395.72;5045467;28;20052;-82
2021/06/07 03:52:37;;;;;;;25.75;15.20;;;;;;;15.21;92.33;99387.91;5055097;28;20041;-82
2021/06/07 03:55:05;;;;;;;26.98;15.05;;;;;;;15.38;92.32;99401.19;5054649;28;20060;-82
2021/06/07 03:57:31;;;;;;;27.52;14.75;;;;;;;15.24;92.53;99399.50;5054879;28;20501;-82
2021/06/07 03:59:57;;;;;;;27.88;14.32;;;;;;;15.17;93.17;99383.88;5055281;28;20080;-82
2021/06/07 04:02:24;;;;;;;25.08;14.70;;;;;;;15.23;93.36;99393.16;5055190;28;20048;-82
2021/06/07 04:04:51;;;;;;;25.00;14.52;;;;;;;15.20;93.71;99391.72;5054705;28;20045;-82
2021/06/07 04:07:18;;;;;;;30.30;15.98;;;;;;;15.24;93.49;99394.88;5055118;28;20057;-82
2021/06/07 04:09:44;;;;;;;26.73;14.57;;;;;;;15.15;93.41;99374.22;5054828;28;20044;-82
2021/06/07 04:12:11;;;;;;;25.55;14.18;;;;;;;15.20;93.13;99383.50;5045470;28;20052;-82
2021/06/07 04:14:37;;;;;;;24.15;13.40;;;;;;;15.15;93.95;99390.66;5038931;28;20440;-81
2021/06/07 04:17:04;;;;;;;23.17;13.85;;;;;;;15.12;94.11;99396.53;5054581;28;20049;-81
2021/06/07 04:19:30;;;;;;;25.17;13.52;;;;;;;15.08;94.31;99387.88;5054358;28;20041;-81
2021/06/07 04:22:10;;;;;;;25.10;13.55;;;;;;;15.15;93.88;99396.13;5054332;28;20373;-81
2021/06/07 04:24:36;;;;;;;23.70;13.13;;;;;;;15.20;94.07;99391.72;5054103;28;20064;-82
2021/06/07 04:27:04;;;;;;;25.58;12.73;;;;;;;15.28;93.67;99403.50;5054310;28;20080;-82
2021/06/07 04:29:32;;;;;;;31.30;12.68;;;;;;;15.15;93.87;99388.75;5054627;28;20052;-82
2021/06/07 04:31:58;;;;;;;23.95;12.95;;;;;;;15.17;94.14;99389.38;5054581;28;20079;-82
2021/06/07 04:34:40;;;;;;;22.67;12.48;;;;;;;15.22;93.85;99400.56;5054181;28;20049;-81
2021/06/07 04:37:08;;;;;;;25.75;14.38;;;;;;;15.04;94.58;99389.38;5054365;28;20048;-81
2021/06/07 04:39:38;;;;;;;25.90;13.00;;;;;;;15.10;94.51;99391.28;5054099;28;20505;-82
2021/06/07 04:42:07;;;;;;;24.70;13.73;;;;;;;15.07;94.40;99378.00;5054332;28;20052;-81
2021/06/07 04:44:34;;;;;;;27.77;13.18;;;;;;;15.16;94.52;99397.78;5054516;28;20049;-82
2021/06/07 04:47:01;;;;;;;23.95;13.15;;;;;;;15.21;94.68;99393.38;5054062;28;20053;-81
2021/06/07 04:49:30;;;;;;;24.25;12.90;;;;;;;15.17;94.61;99381.16;5053455;28;20503;-81
2021/06/07 04:52:33;;;;;;;26.43;12.93;;;;;;;15.18;94.73;99391.06;5053625;28;20424;-82
2021/06/07 04:55:00;;;;;;;26.65;12.65;;;;;;;15.24;94.77;99394.03;5025480;28;20334;-82
2021/06/07 04:57:26;;;;;;;25.70;13.32;;;;;;;15.16;94.89;99382.22;5054224;28;20056;-82
2021/06/07 05:00:04;;;;;;;25.20;13.55;;;;;;;15.14;94.78;99380.75;5054200;28;20052;-81
2021/06/07 05:03:23;;;;;;;26.20;13.75;;;;;;;15.29;94.17;99394.22;5054117;28;20477;-81
2021/06/07 05:06:24;;;;;;;21.15;13.30;;;;;;;15.30;94.28;99394.03;5032891;28;20493;-81
2021/06/07 05:16:08;;;;;;;22.63;12.73;;;;;;;15.29;94.57;99389.59;5045271;28;20053;-81
2021/06/07 05:18:58;;;;;;;23.70;12.93;;;;;;;15.43;94.02;99395.94;4991965;28;20061;-80
2021/06/07 05:21:36;;;;;;;30.77;13.93;;;;;;;15.39;93.44;99386.44;4989773;28;20054;-81
2021/06/07 05:27:26;;;;;;;26.08;13.15;;;;;;;15.28;93.95;99376.09;4972788;28;20102;-81
2021/06/07 05:47:16;;;;;;;24.95;12.52;;;;;;;15.53;93.67;99415.50;4997801;28;20060;-79
2021/06/07 05:50:04;;;;;;;26.02;13.52;;;;;;;15.43;93.37;99401.41;5053470;28;20132;-79
2021/06/07 05:55:56;;;;;;;30.80;14.00;;;;;;;15.50;93.10;99409.63;5052112;28;20091;-80
2021/06/07 06:05:43;;;;;;;25.60;12.90;;;;;;;15.50;93.46;99413.19;5008817;28;20418;-81
2021/06/07 06:08:55;;;;;;;25.77;14.13;;;;;;;15.48;93.83;99417.22;5012660;28;20041;-81
2021/06/07 06:11:25;;;;;;;31.95;14.30;;;;;;;15.43;93.59;99409.63;5047555;28;20045;-81
2021/06/07 06:16:44;;;;;;;26.13;14.43;;;;;;;15.65;93.40;99428.59;5048200;28;20011;-81
2021/06/07 06:19:44;;;;;;;26.38;13.52;;;;;;;15.70;93.50;99426.03;5053452;28;20055;-81
2021/06/07 06:25:11;;;;;;;27.33;13.63;;;;;;;15.80;92.83;99428.41;5049470;28;20350;-80
2021/06/07 06:27:47;;;;;;;29.05;13.93;;;;;;;15.68;93.04;99408.97;5052859;28;20098;-81
2021/06/07 06:30:17;;;;;;;24.48;14.15;;;;;;;15.74;92.32;99414.44;5044195;28;20049;-80
2021/06/07 06:32:44;;;;;;;;;;;;;;;15.78;92.64;99431.34;5051755;28;20040;-81
2021/06/07 06:35:12;;;;;;;21.55;12.00;;;;;;;15.49;93.16;99416.13;5052388;28;19920;-81
2021/06/07 06:38:02;;;;;;;26.77;13.68;;;;;;;15.65;93.25;99432.16;5052237;28;20045;-81
2021/06/07 06:40:31;;;;;;;25.08;12.80;;;;;;;15.68;93.62;99433.63;5046203;28;20056;-81
2021/06/07 06:43:07;;;;;;;27.00;12.98;;;;;;;15.79;93.11;99438.50;5049263;28;20052;-81
2021/06/07 06:45:34;;;;;;;25.08;13.63;;;;;;;15.83;93.01;99437.03;5052801;28;20053;-81
2021/06/07 06:48:02;;;;;;;30.33;14.73;;;;;;;15.86;92.33;99427.53;5040938;28;20045;-80
2021/06/07 06:50:33;;;;;;;23.70;13.52;;;;;;;15.86;92.06;99439.34;5052595;28;20464;-81
2021/06/07 06:53:11;;;;;;;25.38;13.50;;;;;;;15.90;91.72;99443.34;5052996;28;20408;-81
2021/06/07 06:55:49;;;;;;;23.02;12.50;;;;;;;15.80;92.21;99451.16;5052295;28;20053;-81
2021/06/07 06:58:16;;;;;;;23.35;13.57;;;;;;;15.83;91.93;99428.81;5044508;28;20119;-81
2021/06/07 07:00:45;;;;;;;28.15;14.05;;;;;;;15.94;91.70;99435.53;5052531;28;20047;-81
2021/06/07 07:03:16;;;;;;;24.60;12.93;;;;;;;16.02;91.44;99440.81;5034189;28;20071;-81
2021/06/07 07:05:44;;;;;;;22.80;12.85;;;;;;;15.90;91.81;99440.63;5052684;28;20061;-81
2021/06/07 07:08:11;;;;;;;23.90;13.73;;;;;;;16.08;91.62;99448.19;5052066;28;20053;-81
2021/06/07 07:10:40;;;;;;;26.92;13.43;;;;;;;15.98;91.53;99428.56;5052636;28;20041;-81
2021/06/07 07:13:06;;;;;;;28.52;12.73;;;;;;;15.95;92.12;99445.44;5055872;28;20060;-81
2021/06/07 07:15:33;;;;;;;24.40;13.32;;;;;;;16.01;92.08;99458.31;5055755;28;20057;-81
2021/06/07 07:18:00;;;;;;;20.20;13.27;;;;;;;16.03;92.42;99456.22;5055433;28;20095;-80
2021/06/07 07:20:38;;;;;;;28.30;13.65;;;;;;;16.18;91.77;99452.38;5055844;28;20052;-80
2021/06/07 07:23:12;;;;;;;20.25;12.13;;;;;;;16.24;91.60;99459.75;5056242;28;20045;-80
2021/06/07 07:25:51;;;;;;;21.42;13.48;;;;;;;16.26;91.51;99449.41;5055252;28;20049;-81
2021/06/07 07:28:26;;;;;;;26.65;11.57;;;;;;;16.15;91.19;99436.34;5055664;28;20124;-80
2021/06/07 07:31:00;;;;;;;26.80;12.45;;;;;;;16.27;91.32;99446.44;5055070;28;20448;-81
2021/06/07 07:33:36;;;;;;;21.42;13.45;;;;;;;16.33;91.14;99458.44;5067890;28;20481;-80
2021/06/07 07:36:06;;;;;;;25.38;11.85;;;;;;;16.39;90.55;99449.34;5065841;28;20068;-80
2021/06/07 07:38:35;;;;;;;22.40;10.77;;;;;;;16.36;90.42;99447.03;5054835;28;20041;-80
2021/06/07 07:41:01;;;;;;;18.08;12.18;;;;;;;16.38;90.22;99449.56;5054896;28;20516;-80
2021/06/07 07:43:31;;;;;;;25.67;11.10;;;;;;;16.52;89.34;99442.97;5054566;28;20049;-80
2021/06/07 07:45:59;;;;;;;17.75;11.82;;;;;;;16.53;89.45;99447.41;5054251;28;20052;-80
2021/06/07 07:48:25;;;;;;;19.55;11.52;;;;;;;16.50;90.03;99453.34;5043218;28;20079;-81
2021/06/07 07:50:52;;;;;;;18.58;10.95;;;;;;;16.54;89.87;99451.84;5038282;28;20045;-80
2021/06/07 07:53:19;;;;;;;21.02;12.43;;;;;;;16.62;89.41;99439.78;5055316;28;20049;-80
2021/06/07 07:55:50;;;;;;;20.02;11.23;;;;;;;16.80;89.10;99461.00;5055252;28;20132;-81
2021/06/07 07:58:20;;;;;;;18.30;10.63;;;;;;;16.88;89.00;99460.81;5066123;28;20132;-82
2021/06/07 08:00:47;;;;;;;18.80;11.55;;;;;;;17.04;88.10;99453.97;5055281;28;20044;-82
2021/06/07 08:03:14;;;;;;;20.15;12.13;;;;;;;16.76;88.44;99444.16;5054354;28;21798;-81
2021/06/07 08:05:40;;;;;;;22.23;14.75;;;;;;;16.81;88.48;99447.06;5054192;28;20053;-81
2021/06/07 08:08:07;;;;;;;24.83;13.02;;;;;;;16.81;89.05;99446.22;5055016;28;20052;-81
2021/06/07 08:10:33;;;;;;;21.17;12.18;;;;;;;16.63;88.80;99456.03;5054246;28;20064;-82
2021/06/07 08:13:01;;;;;;;22.05;11.80;;;;;;;16.67;89.23;99452.84;5050804;28;20057;-82
2021/06/07 08:15:34;;;;;;;24.40;12.70;;;;;;;16.72;88.85;99448.38;5075054;28;20048;-81
2021/06/07 08:18:30;;;;;;;20.27;13.25;;;;;;;16.80;88.90;99469.25;5064188;28;20049;-80
2021/06/07 08:21:37;;;;;;;21.27;12.57;;;;;;;16.81;88.75;99458.03;5051137;28;20049;-82
2021/06/07 08:24:05;;;;;;;20.05;12.40;;;;;;;16.88;88.47;99455.31;5054360;28;20052;-81
2021/06/07 08:26:31;;;;;;;23.20;12.50;;;;;;;16.80;88.96;99450.03;5054377;28;20049;-80
2021/06/07 08:28:59;;;;;;;26.38;13.88;;;;;;;16.92;88.57;99456.56;5054515;28;20548;-80
2021/06/07 08:31:26;;;;;;;24.83;13.43;;;;;;;16.89;88.61;99443.28;5054330;28;20049;-80
2021/06/07 08:33:52;;;;;;;24.25;13.55;;;;;;;16.87;89.11;99461.84;5054911;28;21023;-80
2021/06/07 08:36:19;;;;;;;22.95;12.77;;;;;;;16.87;88.93;99458.28;5053526;28;20496;-80
2021/06/07 08:38:46;;;;;;;27.30;12.85;;;;;;;16.95;88.71;99458.00;5054710;28;20056;-81
2021/06/07 08:41:13;;;;;;;25.10;14.70;;;;;;;17.14;87.80;99445.25;5054486;28;20063;-80
2021/06/07 08:43:39;;;;;;;25.90;14.10;;;;;;;17.30;87.60;99455.69;5054779;28;20064;-81
2021/06/07 08:46:10;;;;;;;24.88;14.15;;;;;;;17.48;86.47;99456.84;5054302;28;20099;-81
2021/06/07 08:48:39;;;;;;;22.58;13.15;;;;;;;17.39;86.34;99438.94;5054728;28;20049;-82
2021/06/07 08:51:06;;;;;;;22.00;14.15;;;;;;;17.54;86.63;99458.72;5054052;28;20052;-81
2021/06/07 08:53:35;;;;;;;24.35;14.05;;;;;;;17.61;86.30;99455.88;5053916;28;20574;-80
2021/06/07 08:56:02;;;;;;;24.43;14.40;;;;;;;17.52;86.28;99455.31;5033817;28;20069;-82
2021/06/07 08:58:38;;;;;;;25.80;14.30;;;;;;;17.23;87.97;99443.06;5034307;28;20115;-81
2021/06/07 09:01:04;;;;;;;24.52;15.73;;;;;;;17.18;87.43;99451.97;5034263;28;20060;-81
2021/06/07 09:03:33;;;;;;;26.42;14.27;;;;;;;17.31;87.35;99464.78;5042167;28;20409;-81
2021/06/07 09:06:04;;;;;;;27.35;15.23;;;;;;;17.25;87.71;99454.66;5053905;28;20053;-80
2021/06/07 09:08:45;;;;;;;25.63;14.27;;;;;;;17.17;87.46;99453.03;5053351;28;20052;-81
2021/06/07 09:11:22;;;;;;;24.42;14.82;;;;;;;17.37;86.99;99454.81;5052765;28;20052;-81
2021/06/07 09:13:48;;;;;;;29.48;15.63;;;;;;;17.46;86.93;99457.06;5053650;28;20041;-80
2021/06/07 09:16:22;;;;;;;27.17;15.98;;;;;;;17.41;87.37;99456.06;5052754;28;20049;-81
2021/06/07 09:18:50;;;;;;;30.92;16.10;;;;;;;17.47;87.00;99460.66;5053233;28;20099;-80
2021/06/07 09:21:29;;;;;;;30.10;16.65;;;;;;;17.34;87.14;99464.31;5053334;28;20049;-81
2021/06/07 09:24:05;;;;;;;26.38;17.08;;;;;;;17.21;87.19;99450.69;5041873;28;20057;-81
2021/06/07 09:26:35;;;;;;;26.10;16.52;;;;;;;17.36;87.45;99455.88;5053331;28;20063;-80
2021/06/07 09:29:05;;;;;;;31.33;16.08;;;;;;;17.50;87.13;99454.72;5053125;28;20053;-81
2021/06/07 09:31:33;;;;;;;28.73;15.65;;;;;;;17.47;86.77;99450.50;5053115;28;20049;-80
2021/06/07 09:34:06;;;;;;;30.00;17.05;;;;;;;17.66;85.70;99459.66;5052388;28;20053;-80
2021/06/07 09:36:46;;;;;;;28.85;17.73;;;;;;;17.82;85.94;99449.16;5052583;28;20500;-80
